sensor_id;sensor_type;location;lat;lon;timestamp;pressure;altitude;pressure_sealevel;temperature;humidity
43934;BME280;59081;42.706;23.306;2022-12-17T00:02:24;95006.66;;;4.61;100.00
43934;BME280;59081;42.706;23.306;2022-12-17T00:05:08;95001.22;;;4.53;100.00
43934;BME280;59081;42.706;23.306;2022-12-17T00:07:57;94734.44;;;2.63;100.00
43934;BME280;59081;42.706;23.306;2022-12-17T00:10:41;94937.47;;;3.89;100.00
43934;BME280;59081;42.706;23.306;2022-12-17T00:13:25;95022.38;;;4.42;100.00
43934;BME280;59081;42.706;23.306;2022-12-17T00:16:09;94917.59;;;3.92;100.00
43934;BME280;59081;42.706;23.306;2022-12-17T00:18:56;94921.91;;;3.85;100.00
43934;BME280;59081;42.706;23.306;2022-12-17T00:21:40;94806.09;;;3.08;100.00
43934;BME280;59081;42.706;23.306;2022-12-17T00:24:43;95000.38;;;4.12;100.00
43934;BME280;59081;42.706;23.306;2022-12-17T00:27:30;94933.66;;;3.75;100.00
43934;BME280;59081;42.706;23.306;2022-12-17T00:30:25;94806.16;;;2.97;100.00
43934;BME280;59081;42.706;23.306;2022-12-17T00:33:11;94816.09;;;3.29;100.00
43934;BME280;59081;42.706;23.306;2022-12-17T00:35:55;95018.78;;;4.52;100.00
43934;BME280;59081;42.706;23.306;2022-12-17T00:38:39;94751.06;;;2.79;100.00
43934;BME280;59081;42.706;23.306;2022-12-17T00:41:23;95021.09;;;4.54;100.00
43934;BME280;59081;42.706;23.306;2022-12-17T00:44:10;94908.38;;;4.27;100.00
43934;BME280;59081;42.706;23.306;2022-12-17T00:46:53;94936.88;;;4.60;100.00
43934;BME280;59081;42.706;23.306;2022-12-17T00:49:37;94947.59;;;4.81;100.00
43934;BME280;59081;42.706;23.306;2022-12-17T00:52:21;94912.63;;;4.69;100.00
43934;BME280;59081;42.706;23.306;2022-12-17T00:55:06;95005.19;;;5.31;100.00
43934;BME280;59081;42.706;23.306;2022-12-17T00:57:54;94841.78;;;3.79;100.00
43934;BME280;59081;42.706;23.306;2022-12-17T01:00:39;94778.72;;;3.33;100.00
43934;BME280;59081;42.706;23.306;2022-12-17T01:03:23;95021.47;;;4.60;100.00
43934;BME280;59081;42.706;23.306;2022-12-17T01:06:07;95006.75;;;4.46;100.00
43934;BME280;59081;42.706;23.306;2022-12-17T01:08:51;94826.66;;;3.16;100.00
43934;BME280;59081;42.706;23.306;2022-12-17T01:11:35;94898.50;;;3.95;100.00
43934;BME280;59081;42.706;23.306;2022-12-17T01:14:23;95027.53;;;4.81;100.00
43934;BME280;59081;42.706;23.306;2022-12-17T01:17:07;95002.00;;;4.58;100.00
43934;BME280;59081;42.706;23.306;2022-12-17T01:19:51;95025.09;;;4.46;100.00
43934;BME280;59081;42.706;23.306;2022-12-17T01:22:35;94926.78;;;4.12;100.00
43934;BME280;59081;42.706;23.306;2022-12-17T01:25:21;94864.50;;;3.59;100.00
43934;BME280;59081;42.706;23.306;2022-12-17T01:28:05;94808.38;;;3.17;100.00
43934;BME280;59081;42.706;23.306;2022-12-17T01:30:49;94869.06;;;3.76;100.00
43934;BME280;59081;42.706;23.306;2022-12-17T01:33:33;94925.91;;;4.22;100.00
43934;BME280;59081;42.706;23.306;2022-12-17T01:36:17;94802.47;;;3.29;100.00
43934;BME280;59081;42.706;23.306;2022-12-17T01:39:01;94727.22;;;3.04;100.00
43934;BME280;59081;42.706;23.306;2022-12-17T01:41:46;94864.44;;;3.66;100.00
43934;BME280;59081;42.706;23.306;2022-12-17T01:44:45;94898.63;;;3.77;100.00
43934;BME280;59081;42.706;23.306;2022-12-17T01:50:34;94896.16;;;3.97;100.00
43934;BME280;59081;42.706;23.306;2022-12-17T01:53:28;94839.94;;;3.66;100.00
43934;BME280;59081;42.706;23.306;2022-12-17T01:56:14;94882.72;;;3.69;100.00
43934;BME280;59081;42.706;23.306;2022-12-17T01:58:59;94787.88;;;3.01;100.00
43934;BME280;59081;42.706;23.306;2022-12-17T02:01:44;94870.16;;;3.82;100.00
43934;BME280;59081;42.706;23.306;2022-12-17T02:04:28;94903.56;;;3.97;100.00
43934;BME280;59081;42.706;23.306;2022-12-17T02:07:24;94739.41;;;2.78;100.00
43934;BME280;59081;42.706;23.306;2022-12-17T02:10:16;94979.75;;;4.59;100.00
43934;BME280;59081;42.706;23.306;2022-12-17T02:13:40;94857.72;;;3.81;100.00
43934;BME280;59081;42.706;23.306;2022-12-17T02:16:42;94954.44;;;4.14;100.00
43934;BME280;59081;42.706;23.306;2022-12-17T02:19:50;94855.84;;;3.74;100.00
43934;BME280;59081;42.706;23.306;2022-12-17T02:26:15;94964.31;;;4.42;100.00
43934;BME280;59081;42.706;23.306;2022-12-17T02:29:02;94849.72;;;3.60;100.00
43934;BME280;59081;42.706;23.306;2022-12-17T02:31:48;94739.06;;;2.73;100.00
43934;BME280;59081;42.706;23.306;2022-12-17T02:34:47;94839.50;;;3.74;100.00
43934;BME280;59081;42.706;23.306;2022-12-17T02:37:32;94876.75;;;3.84;100.00
43934;BME280;59081;42.706;23.306;2022-12-17T02:40:17;94885.38;;;3.79;100.00
43934;BME280;59081;42.706;23.306;2022-12-17T02:43:06;94788.00;;;3.39;100.00
43934;BME280;59081;42.706;23.306;2022-12-17T02:45:53;94966.16;;;4.55;100.00
43934;BME280;59081;42.706;23.306;2022-12-17T02:48:38;94851.03;;;3.93;100.00
43934;BME280;59081;42.706;23.306;2022-12-17T02:51:24;94710.34;;;3.24;100.00
43934;BME280;59081;42.706;23.306;2022-12-17T02:54:12;94802.09;;;3.78;100.00
43934;BME280;59081;42.706;23.306;2022-12-17T02:56:57;94845.88;;;4.02;100.00
43934;BME280;59081;42.706;23.306;2022-12-17T02:59:44;94851.38;;;3.98;100.00
43934;BME280;59081;42.706;23.306;2022-12-17T03:02:31;94836.97;;;3.98;100.00
43934;BME280;59081;42.706;23.306;2022-12-17T03:05:18;94796.13;;;3.94;100.00
43934;BME280;59081;42.706;23.306;2022-12-17T03:08:02;94880.84;;;4.51;100.00
43934;BME280;59081;42.706;23.306;2022-12-17T03:10:49;94644.19;;;2.82;100.00
43934;BME280;59081;42.706;23.306;2022-12-17T03:13:33;94790.56;;;3.60;100.00
43934;BME280;59081;42.706;23.306;2022-12-17T03:16:17;94897.03;;;4.69;100.00
43934;BME280;59081;42.706;23.306;2022-12-17T03:19:02;94759.44;;;3.61;100.00
43934;BME280;59081;42.706;23.306;2022-12-17T03:21:46;94921.13;;;4.78;100.00
43934;BME280;59081;42.706;23.306;2022-12-17T03:24:33;94862.09;;;4.57;100.00
43934;BME280;59081;42.706;23.306;2022-12-17T03:27:23;94795.00;;;3.88;100.00
43934;BME280;59081;42.706;23.306;2022-12-17T03:30:10;94738.28;;;3.76;100.00
43934;BME280;59081;42.706;23.306;2022-12-17T03:32:57;94768.09;;;3.94;100.00
43934;BME280;59081;42.706;23.306;2022-12-17T03:35:41;94938.69;;;4.77;100.00
43934;BME280;59081;42.706;23.306;2022-12-17T03:38:25;94816.22;;;4.07;100.00
43934;BME280;59081;42.706;23.306;2022-12-17T03:41:11;94730.03;;;3.83;100.00
43934;BME280;59081;42.706;23.306;2022-12-17T03:43:58;94742.84;;;3.86;100.00
43934;BME280;59081;42.706;23.306;2022-12-17T03:46:42;94864.19;;;4.80;100.00
43934;BME280;59081;42.706;23.306;2022-12-17T03:49:26;94815.38;;;4.51;100.00
43934;BME280;59081;42.706;23.306;2022-12-17T03:52:10;94922.75;;;5.40;100.00
43934;BME280;59081;42.706;23.306;2022-12-17T03:54:54;94821.34;;;4.77;100.00
43934;BME280;59081;42.706;23.306;2022-12-17T03:57:38;94733.66;;;4.44;100.00
43934;BME280;59081;42.706;23.306;2022-12-17T04:00:22;94821.47;;;5.27;100.00
43934;BME280;59081;42.706;23.306;2022-12-17T04:03:06;94712.66;;;4.07;100.00
43934;BME280;59081;42.706;23.306;2022-12-17T04:05:50;94792.13;;;4.74;100.00
43934;BME280;59081;42.706;23.306;2022-12-17T04:08:34;94930.22;;;5.66;100.00
43934;BME280;59081;42.706;23.306;2022-12-17T04:11:18;94914.34;;;5.84;100.00
43934;BME280;59081;42.706;23.306;2022-12-17T04:14:02;94664.09;;;3.99;100.00
43934;BME280;59081;42.706;23.306;2022-12-17T04:16:46;94810.59;;;4.93;100.00
43934;BME280;59081;42.706;23.306;2022-12-17T04:19:32;94771.19;;;4.67;100.00
43934;BME280;59081;42.706;23.306;2022-12-17T04:22:16;94711.88;;;4.07;100.00
43934;BME280;59081;42.706;23.306;2022-12-17T04:25:00;94785.53;;;4.71;100.00
43934;BME280;59081;42.706;23.306;2022-12-17T04:27:44;94654.69;;;3.69;100.00
43934;BME280;59081;42.706;23.306;2022-12-17T04:30:28;94880.25;;;5.05;100.00
43934;BME280;59081;42.706;23.306;2022-12-17T04:33:12;94895.72;;;5.18;100.00
43934;BME280;59081;42.706;23.306;2022-12-17T04:35:56;94816.97;;;5.13;100.00
43934;BME280;59081;42.706;23.306;2022-12-17T04:38:42;94838.91;;;5.06;100.00
43934;BME280;59081;42.706;23.306;2022-12-17T04:41:28;94842.00;;;5.08;100.00
43934;BME280;59081;42.706;23.306;2022-12-17T04:44:13;94844.72;;;4.78;100.00
43934;BME280;59081;42.706;23.306;2022-12-17T04:47:00;94823.69;;;4.75;100.00
43934;BME280;59081;42.706;23.306;2022-12-17T04:49:44;94818.22;;;4.78;100.00
43934;BME280;59081;42.706;23.306;2022-12-17T04:52:28;94895.13;;;5.61;100.00
43934;BME280;59081;42.706;23.306;2022-12-17T04:55:12;94917.78;;;5.62;100.00
43934;BME280;59081;42.706;23.306;2022-12-17T04:58:03;94964.81;;;5.76;100.00
43934;BME280;59081;42.706;23.306;2022-12-17T05:00:50;94989.44;;;5.73;100.00
43934;BME280;59081;42.706;23.306;2022-12-17T05:03:34;94874.78;;;5.05;100.00
43934;BME280;59081;42.706;23.306;2022-12-17T05:06:18;94817.56;;;4.67;100.00
43934;BME280;59081;42.706;23.306;2022-12-17T05:09:22;94904.09;;;5.35;100.00
43934;BME280;59081;42.706;23.306;2022-12-17T05:12:06;95007.91;;;5.65;100.00
43934;BME280;59081;42.706;23.306;2022-12-17T05:17:44;94898.88;;;5.13;100.00
43934;BME280;59081;42.706;23.306;2022-12-17T05:20:28;94892.25;;;5.14;100.00
43934;BME280;59081;42.706;23.306;2022-12-17T05:23:12;94988.38;;;5.67;100.00
43934;BME280;59081;42.706;23.306;2022-12-17T05:26:03;94839.53;;;4.53;100.00
43934;BME280;59081;42.706;23.306;2022-12-17T05:28:47;94867.41;;;4.68;100.00
43934;BME280;59081;42.706;23.306;2022-12-17T05:31:31;94894.84;;;4.91;100.00
43934;BME280;59081;42.706;23.306;2022-12-17T05:34:15;94872.13;;;5.01;100.00
43934;BME280;59081;42.706;23.306;2022-12-17T05:36:59;94885.56;;;5.19;100.00
43934;BME280;59081;42.706;23.306;2022-12-17T05:39:43;94890.03;;;5.36;100.00
43934;BME280;59081;42.706;23.306;2022-12-17T05:42:27;95015.94;;;6.10;100.00
43934;BME280;59081;42.706;23.306;2022-12-17T05:45:11;94950.56;;;5.62;100.00
43934;BME280;59081;42.706;23.306;2022-12-17T05:47:58;94805.09;;;4.32;100.00
43934;BME280;59081;42.706;23.306;2022-12-17T05:50:42;94904.81;;;4.71;100.00
43934;BME280;59081;42.706;23.306;2022-12-17T05:53:26;94954.94;;;5.21;100.00
43934;BME280;59081;42.706;23.306;2022-12-17T05:56:09;94896.19;;;4.76;100.00
43934;BME280;59081;42.706;23.306;2022-12-17T05:58:56;94862.22;;;4.46;100.00
43934;BME280;59081;42.706;23.306;2022-12-17T06:01:40;94836.50;;;4.47;100.00
43934;BME280;59081;42.706;23.306;2022-12-17T06:04:24;94849.59;;;4.60;100.00
43934;BME280;59081;42.706;23.306;2022-12-17T06:07:08;94938.72;;;5.07;100.00
43934;BME280;59081;42.706;23.306;2022-12-17T06:09:52;94850.13;;;4.47;100.00
43934;BME280;59081;42.706;23.306;2022-12-17T06:12:36;94829.44;;;4.50;100.00
43934;BME280;59081;42.706;23.306;2022-12-17T06:15:23;94842.13;;;4.67;100.00
43934;BME280;59081;42.706;23.306;2022-12-17T06:18:07;95024.09;;;6.13;100.00
43934;BME280;59081;42.706;23.306;2022-12-17T06:20:51;94895.59;;;5.25;100.00
43934;BME280;59081;42.706;23.306;2022-12-17T06:23:49;94942.41;;;5.28;100.00
43934;BME280;59081;42.706;23.306;2022-12-17T06:26:36;94907.88;;;4.76;100.00
43934;BME280;59081;42.706;23.306;2022-12-17T06:29:20;94853.28;;;4.80;100.00
43934;BME280;59081;42.706;23.306;2022-12-17T06:32:04;95066.50;;;6.25;100.00
43934;BME280;59081;42.706;23.306;2022-12-17T06:34:48;94920.88;;;5.64;100.00
43934;BME280;59081;42.706;23.306;2022-12-17T06:37:32;94930.38;;;5.82;100.00
43934;BME280;59081;42.706;23.306;2022-12-17T06:40:16;94997.31;;;6.01;100.00
43934;BME280;59081;42.706;23.306;2022-12-17T06:43:02;94854.84;;;5.11;100.00
43934;BME280;59081;42.706;23.306;2022-12-17T06:45:46;95086.78;;;6.58;100.00
43934;BME280;59081;42.706;23.306;2022-12-17T06:48:31;94805.94;;;5.20;100.00
43934;BME280;59081;42.706;23.306;2022-12-17T06:51:15;95065.31;;;6.80;100.00
43934;BME280;59081;42.706;23.306;2022-12-17T06:53:58;94827.97;;;5.64;100.00
43934;BME280;59081;42.706;23.306;2022-12-17T06:56:45;94952.91;;;6.67;100.00
43934;BME280;59081;42.706;23.306;2022-12-17T06:59:29;94923.59;;;5.94;100.00
43934;BME280;59081;42.706;23.306;2022-12-17T07:02:13;94962.94;;;6.27;100.00
43934;BME280;59081;42.706;23.306;2022-12-17T07:04:57;95100.13;;;7.06;100.00
43934;BME280;59081;42.706;23.306;2022-12-17T07:07:44;95033.31;;;7.00;100.00
43934;BME280;59081;42.706;23.306;2022-12-17T07:10:28;95097.22;;;7.80;100.00
43934;BME280;59081;42.706;23.306;2022-12-17T07:13:15;95137.78;;;8.51;100.00
43934;BME280;59081;42.706;23.306;2022-12-17T07:15:58;95091.91;;;8.12;100.00
43934;BME280;59081;42.706;23.306;2022-12-17T07:18:43;95067.16;;;7.76;100.00
43934;BME280;59081;42.706;23.306;2022-12-17T07:21:30;95086.78;;;7.94;100.00
43934;BME280;59081;42.706;23.306;2022-12-17T07:24:16;95193.25;;;8.62;100.00
43934;BME280;59081;42.706;23.306;2022-12-17T07:27:00;95010.25;;;7.80;100.00
43934;BME280;59081;42.706;23.306;2022-12-17T07:29:44;95073.59;;;8.25;100.00
43934;BME280;59081;42.706;23.306;2022-12-17T07:32:28;95004.94;;;7.73;100.00
43934;BME280;59081;42.706;23.306;2022-12-17T07:35:15;95066.63;;;8.21;100.00
43934;BME280;59081;42.706;23.306;2022-12-17T07:38:02;94942.38;;;7.48;100.00
43934;BME280;59081;42.706;23.306;2022-12-17T07:40:46;95091.03;;;8.15;100.00
43934;BME280;59081;42.706;23.306;2022-12-17T07:43:30;94988.91;;;7.52;100.00
43934;BME280;59081;42.706;23.306;2022-12-17T07:46:17;95095.41;;;8.32;100.00
43934;BME280;59081;42.706;23.306;2022-12-17T07:49:01;94894.72;;;7.06;100.00
43934;BME280;59081;42.706;23.306;2022-12-17T07:51:45;94925.16;;;7.67;100.00
43934;BME280;59081;42.706;23.306;2022-12-17T07:54:31;94996.56;;;8.36;100.00
43934;BME280;59081;42.706;23.306;2022-12-17T07:57:15;94964.63;;;8.26;100.00
43934;BME280;59081;42.706;23.306;2022-12-17T07:59:59;94976.78;;;8.25;100.00
43934;BME280;59081;42.706;23.306;2022-12-17T08:02:46;95075.44;;;8.84;100.00
43934;BME280;59081;42.706;23.306;2022-12-17T08:05:30;95077.94;;;8.79;100.00
43934;BME280;59081;42.706;23.306;2022-12-17T08:08:16;94974.91;;;8.22;100.00
43934;BME280;59081;42.706;23.306;2022-12-17T08:11:00;95012.03;;;8.62;100.00
43934;BME280;59081;42.706;23.306;2022-12-17T08:13:44;94959.59;;;8.57;100.00
43934;BME280;59081;42.706;23.306;2022-12-17T08:16:28;95101.03;;;9.46;100.00
43934;BME280;59081;42.706;23.306;2022-12-17T08:19:12;95038.78;;;9.23;100.00
43934;BME280;59081;42.706;23.306;2022-12-17T08:21:56;95143.00;;;9.79;100.00
43934;BME280;59081;42.706;23.306;2022-12-17T08:24:40;95003.09;;;8.42;100.00
43934;BME280;59081;42.706;23.306;2022-12-17T08:27:27;94966.53;;;7.93;100.00
43934;BME280;59081;42.706;23.306;2022-12-17T08:30:11;95144.59;;;9.15;100.00
43934;BME280;59081;42.706;23.306;2022-12-17T08:33:01;95026.34;;;8.70;100.00
43934;BME280;59081;42.706;23.306;2022-12-17T08:35:50;95129.38;;;9.59;100.00
43934;BME280;59081;42.706;23.306;2022-12-17T08:38:39;95136.72;;;9.78;100.00
43934;BME280;59081;42.706;23.306;2022-12-17T08:41:24;94957.47;;;8.64;100.00
43934;BME280;59081;42.706;23.306;2022-12-17T08:44:10;95169.13;;;10.32;100.00
43934;BME280;59081;42.706;23.306;2022-12-17T08:46:54;94974.47;;;9.04;100.00
43934;BME280;59081;42.706;23.306;2022-12-17T08:49:38;95029.81;;;9.52;100.00
43934;BME280;59081;42.706;23.306;2022-12-17T08:52:22;94997.47;;;9.97;100.00
43934;BME280;59081;42.706;23.306;2022-12-17T08:55:08;94917.72;;;9.56;100.00
43934;BME280;59081;42.706;23.306;2022-12-17T08:57:54;95095.28;;;10.56;100.00
43934;BME280;59081;42.706;23.306;2022-12-17T09:00:38;95028.34;;;10.18;100.00
43934;BME280;59081;42.706;23.306;2022-12-17T09:03:28;95091.34;;;10.82;100.00
43934;BME280;59081;42.706;23.306;2022-12-17T09:06:12;95036.25;;;10.16;100.00
43934;BME280;59081;42.706;23.306;2022-12-17T09:08:56;95178.88;;;11.04;100.00
43934;BME280;59081;42.706;23.306;2022-12-17T09:11:41;94908.25;;;9.57;100.00
43934;BME280;59081;42.706;23.306;2022-12-17T09:14:25;95084.06;;;10.89;100.00
43934;BME280;59081;42.706;23.306;2022-12-17T09:17:09;95096.84;;;10.95;100.00
43934;BME280;59081;42.706;23.306;2022-12-17T09:19:53;95154.47;;;11.53;100.00
43934;BME280;59081;42.706;23.306;2022-12-17T09:22:40;95043.94;;;10.88;100.00
43934;BME280;59081;42.706;23.306;2022-12-17T09:25:24;95097.59;;;10.96;100.00
43934;BME280;59081;42.706;23.306;2022-12-17T09:28:11;95104.56;;;10.88;100.00
43934;BME280;59081;42.706;23.306;2022-12-17T09:30:59;95005.84;;;9.94;100.00
43934;BME280;59081;42.706;23.306;2022-12-17T09:33:43;95229.28;;;11.30;100.00
43934;BME280;59081;42.706;23.306;2022-12-17T09:36:30;95008.66;;;9.49;100.00
43934;BME280;59081;42.706;23.306;2022-12-17T09:39:14;95185.50;;;10.52;100.00
43934;BME280;59081;42.706;23.306;2022-12-17T09:42:37;95103.59;;;9.98;100.00
43934;BME280;59081;42.706;23.306;2022-12-17T09:45:34;95126.91;;;10.52;100.00
43934;BME280;59081;42.706;23.306;2022-12-17T09:48:25;95269.09;;;11.16;100.00
43934;BME280;59081;42.706;23.306;2022-12-17T09:51:21;95086.19;;;9.72;100.00
43934;BME280;59081;42.706;23.306;2022-12-17T09:57:35;95158.50;;;10.47;100.00
43934;BME280;59081;42.706;23.306;2022-12-17T10:00:28;95120.03;;;10.15;100.00
43934;BME280;59081;42.706;23.306;2022-12-17T10:03:19;95109.47;;;10.13;100.00
43934;BME280;59081;42.706;23.306;2022-12-17T10:06:15;95155.72;;;9.89;100.00
43934;BME280;59081;42.706;23.306;2022-12-17T10:09:02;95039.56;;;9.24;100.00
43934;BME280;59081;42.706;23.306;2022-12-17T10:11:52;95245.03;;;10.33;100.00
43934;BME280;59081;42.706;23.306;2022-12-17T10:14:36;95093.22;;;9.28;100.00
43934;BME280;59081;42.706;23.306;2022-12-17T10:17:23;95255.94;;;10.66;100.00
43934;BME280;59081;42.706;23.306;2022-12-17T10:20:22;95244.25;;;10.33;100.00
43934;BME280;59081;42.706;23.306;2022-12-17T10:23:07;95297.75;;;10.48;100.00
43934;BME280;59081;42.706;23.306;2022-12-17T10:25:55;95293.88;;;11.03;100.00
43934;BME280;59081;42.706;23.306;2022-12-17T10:28:40;95289.59;;;10.73;100.00
43934;BME280;59081;42.706;23.306;2022-12-17T10:31:27;95081.06;;;9.13;100.00
43934;BME280;59081;42.706;23.306;2022-12-17T10:34:19;95158.69;;;9.50;100.00
43934;BME280;59081;42.706;23.306;2022-12-17T10:37:05;95271.16;;;10.41;100.00
43934;BME280;59081;42.706;23.306;2022-12-17T10:40:13;95168.22;;;9.29;100.00
43934;BME280;59081;42.706;23.306;2022-12-17T10:43:00;95168.22;;;9.29;100.00
43934;BME280;59081;42.706;23.306;2022-12-17T10:45:52;95098.78;;;8.76;100.00
43934;BME280;59081;42.706;23.306;2022-12-17T10:48:37;95167.25;;;9.19;100.00
43934;BME280;59081;42.706;23.306;2022-12-17T10:51:33;95265.25;;;9.62;100.00
43934;BME280;59081;42.706;23.306;2022-12-17T10:54:29;95250.88;;;9.70;100.00
43934;BME280;59081;42.706;23.306;2022-12-17T10:57:35;95225.44;;;9.99;100.00
43934;BME280;59081;42.706;23.306;2022-12-17T11:03:05;95036.72;;;9.27;100.00
43934;BME280;59081;42.706;23.306;2022-12-17T11:05:52;95068.09;;;9.59;100.00
43934;BME280;59081;42.706;23.306;2022-12-17T11:08:38;95185.53;;;10.65;100.00
43934;BME280;59081;42.706;23.306;2022-12-17T11:11:24;95038.63;;;10.30;100.00
43934;BME280;59081;42.706;23.306;2022-12-17T11:14:09;95162.44;;;11.13;100.00
43934;BME280;59081;42.706;23.306;2022-12-17T11:16:59;95192.13;;;11.34;100.00
43934;BME280;59081;42.706;23.306;2022-12-17T11:19:56;95074.00;;;10.44;100.00
43934;BME280;59081;42.706;23.306;2022-12-17T11:22:47;95020.28;;;9.98;100.00
43934;BME280;59081;42.706;23.306;2022-12-17T11:25:41;95210.63;;;11.46;100.00
43934;BME280;59081;42.706;23.306;2022-12-17T11:28:28;95146.34;;;11.11;100.00
43934;BME280;59081;42.706;23.306;2022-12-17T11:31:25;95164.19;;;11.32;100.00
43934;BME280;59081;42.706;23.306;2022-12-17T11:38:06;95209.53;;;11.57;100.00
43934;BME280;59081;42.706;23.306;2022-12-17T11:41:00;95208.00;;;11.56;100.00
43934;BME280;59081;42.706;23.306;2022-12-17T11:47:17;95271.06;;;11.28;100.00
43934;BME280;59081;42.706;23.306;2022-12-17T11:58:50;95078.75;;;9.57;100.00
43934;BME280;59081;42.706;23.306;2022-12-17T12:07:41;95249.31;;;10.18;100.00
43934;BME280;59081;42.706;23.306;2022-12-17T12:13:51;95192.44;;;9.83;100.00
43934;BME280;59081;42.706;23.306;2022-12-17T12:26:18;95191.97;;;10.45;100.00
43934;BME280;59081;42.706;23.306;2022-12-17T12:35:33;95111.53;;;10.09;100.00
43934;BME280;59081;42.706;23.306;2022-12-17T12:38:21;95048.81;;;9.75;100.00
43934;BME280;59081;42.706;23.306;2022-12-17T12:41:21;95190.41;;;10.73;100.00
43934;BME280;59081;42.706;23.306;2022-12-17T12:47:24;95146.38;;;10.57;100.00
43934;BME280;59081;42.706;23.306;2022-12-17T12:50:43;95121.56;;;10.32;100.00
43934;BME280;59081;42.706;23.306;2022-12-17T12:53:29;95189.50;;;10.76;100.00
43934;BME280;59081;42.706;23.306;2022-12-17T12:56:34;95252.44;;;11.45;100.00
43934;BME280;59081;42.706;23.306;2022-12-17T12:59:33;95258.41;;;11.43;100.00
43934;BME280;59081;42.706;23.306;2022-12-17T13:02:29;95211.84;;;11.33;100.00
43934;BME280;59081;42.706;23.306;2022-12-17T13:05:27;95169.84;;;10.49;100.00
43934;BME280;59081;42.706;23.306;2022-12-17T13:08:22;95256.66;;;10.82;100.00
43934;BME280;59081;42.706;23.306;2022-12-17T13:10:49;95235.78;;;10.40;100.00
43934;BME280;59081;42.706;23.306;2022-12-17T13:13:35;95221.28;;;10.23;100.00
43934;BME280;59081;42.706;23.306;2022-12-17T13:19:35;95172.69;;;10.17;100.00
43934;BME280;59081;42.706;23.306;2022-12-17T13:24:45;95117.97;;;9.45;100.00
43934;BME280;59081;42.706;23.306;2022-12-17T13:29:52;95195.63;;;9.81;100.00
43934;BME280;59081;42.706;23.306;2022-12-17T13:32:32;95160.19;;;9.83;100.00
43934;BME280;59081;42.706;23.306;2022-12-17T13:35:24;95051.69;;;8.94;100.00
43934;BME280;59081;42.706;23.306;2022-12-17T13:43:26;95117.78;;;9.52;100.00
43934;BME280;59081;42.706;23.306;2022-12-17T13:45:57;95302.13;;;10.91;100.00
43934;BME280;59081;42.706;23.306;2022-12-17T13:48:27;95297.06;;;11.02;100.00
43934;BME280;59081;42.706;23.306;2022-12-17T13:51:01;95230.00;;;10.51;100.00
43934;BME280;59081;42.706;23.306;2022-12-17T13:53:29;95106.03;;;9.51;100.00
43934;BME280;59081;42.706;23.306;2022-12-17T13:55:59;95213.38;;;10.09;100.00
43934;BME280;59081;42.706;23.306;2022-12-17T13:58:30;95214.94;;;9.94;100.00
43934;BME280;59081;42.706;23.306;2022-12-17T14:01:09;95292.09;;;10.39;100.00
43934;BME280;59081;42.706;23.306;2022-12-17T14:03:48;95239.88;;;10.03;100.00
43934;BME280;59081;42.706;23.306;2022-12-17T14:06:14;95290.84;;;10.40;100.00
43934;BME280;59081;42.706;23.306;2022-12-17T14:08:43;95115.56;;;9.47;100.00
43934;BME280;59081;42.706;23.306;2022-12-17T14:11:10;95118.47;;;9.23;100.00
43934;BME280;59081;42.706;23.306;2022-12-17T14:13:57;95120.03;;;9.08;100.00
43934;BME280;59081;42.706;23.306;2022-12-17T14:16:26;95161.03;;;9.35;100.00
43934;BME280;59081;42.706;23.306;2022-12-17T14:18:54;95059.94;;;8.94;100.00
43934;BME280;59081;42.706;23.306;2022-12-17T14:21:21;95101.91;;;9.27;100.00
43934;BME280;59081;42.706;23.306;2022-12-17T14:23:49;95192.13;;;10.09;100.00
43934;BME280;59081;42.706;23.306;2022-12-17T14:26:16;95096.69;;;9.16;100.00
43934;BME280;59081;42.706;23.306;2022-12-17T14:28:53;95325.44;;;10.41;100.00
43934;BME280;59081;42.706;23.306;2022-12-17T14:31:25;95207.00;;;9.51;100.00
43934;BME280;59081;42.706;23.306;2022-12-17T14:34:03;95233.59;;;9.54;100.00
43934;BME280;59081;42.706;23.306;2022-12-17T14:36:34;95324.25;;;10.42;100.00
43934;BME280;59081;42.706;23.306;2022-12-17T14:39:04;95279.28;;;10.32;100.00
43934;BME280;59081;42.706;23.306;2022-12-17T14:41:37;95186.75;;;9.90;100.00
43934;BME280;59081;42.706;23.306;2022-12-17T14:44:24;95213.69;;;9.33;100.00
43934;BME280;59081;42.706;23.306;2022-12-17T14:47:18;95145.41;;;8.80;100.00
43934;BME280;59081;42.706;23.306;2022-12-17T14:50:07;95341.53;;;9.94;100.00
43934;BME280;59081;42.706;23.306;2022-12-17T14:52:52;95339.00;;;9.67;100.00
43934;BME280;59081;42.706;23.306;2022-12-17T14:58:20;95345.53;;;9.73;100.00
43934;BME280;59081;42.706;23.306;2022-12-17T15:03:38;95098.22;;;7.69;100.00
43934;BME280;59081;42.706;23.306;2022-12-17T15:06:07;95141.50;;;8.01;100.00
43934;BME280;59081;42.706;23.306;2022-12-17T15:08:34;95330.97;;;9.20;100.00
43934;BME280;59081;42.706;23.306;2022-12-17T15:11:01;95280.19;;;8.89;100.00
43934;BME280;59081;42.706;23.306;2022-12-17T15:13:27;95125.63;;;8.13;100.00
43934;BME280;59081;42.706;23.306;2022-12-17T15:15:55;95220.91;;;8.52;100.00
43934;BME280;59081;42.706;23.306;2022-12-17T15:18:21;95295.97;;;8.85;100.00
43934;BME280;59081;42.706;23.306;2022-12-17T15:20:49;95253.16;;;8.24;100.00
43934;BME280;59081;42.706;23.306;2022-12-17T15:23:17;95373.81;;;8.98;100.00
43934;BME280;59081;42.706;23.306;2022-12-17T15:25:44;95139.53;;;7.36;100.00
43934;BME280;59081;42.706;23.306;2022-12-17T15:28:11;95185.03;;;7.99;100.00
43934;BME280;59081;42.706;23.306;2022-12-17T15:30:37;95409.25;;;9.12;100.00
43934;BME280;59081;42.706;23.306;2022-12-17T15:33:05;95393.75;;;9.02;100.00
43934;BME280;59081;42.706;23.306;2022-12-17T15:35:34;95396.84;;;9.04;100.00
43934;BME280;59081;42.706;23.306;2022-12-17T15:38:07;95197.84;;;8.06;100.00
43934;BME280;59081;42.706;23.306;2022-12-17T15:40:38;95396.28;;;9.52;100.00